Time;durP1;ratioP1;P1;durP2;ratioP2;P2;SDS_P1;SDS_P2;PMS_P1;PMS_P2;Temp;Humidity;BMP_temperature;BMP_pressure;BME280_temperature;BME280_humidity;BME280_pressure;Samples;Min_cycle;Max_cycle;Signal;HPM_P1;HPM_P2
2023/06/25 00:00:44;;;;;;;3.75;1.77;;;;;;;27.71;48.28;101282.94;5097240;28;20044;-58
2023/06/25 00:03:12;;;;;;;2.95;1.65;;;;;;;27.74;48.59;101284.47;5097349;28;20071;-58
2023/06/25 00:05:40;;;;;;;3.22;1.30;;;;;;;27.75;48.44;101278.88;5097229;28;20047;-59
2023/06/25 00:08:07;;;;;;;2.85;1.48;;;;;;;27.79;48.11;101279.34;5097328;28;20483;-59
2023/06/25 00:10:35;;;;;;;3.67;1.35;;;;;;;27.79;48.18;101282.94;5096813;28;20058;-59
2023/06/25 00:13:03;;;;;;;2.25;1.33;;;;;;;27.81;48.08;101288.19;5096812;28;20054;-59
2023/06/25 00:15:30;;;;;;;2.15;1.13;;;;;;;27.83;48.13;101284.28;5096578;28;20048;-58
2023/06/25 00:17:58;;;;;;;2.88;1.40;;;;;;;27.83;48.16;101284.28;5096827;28;20419;-59
2023/06/25 00:20:26;;;;;;;2.78;1.38;;;;;;;27.84;47.94;101294.13;5096909;28;20385;-59
2023/06/25 00:22:54;;;;;;;2.10;1.20;;;;;;;27.86;48.29;101283.06;5096959;28;20055;-58
2023/06/25 00:25:34;;;;;;;3.78;1.30;;;;;;;27.87;47.75;101287.47;5096772;28;20043;-58
2023/06/25 00:28:02;;;;;;;3.40;1.83;;;;;;;27.90;48.17;101294.44;5096621;28;20040;-58
2023/06/25 00:30:30;;;;;;;3.10;1.70;;;;;;;27.89;47.72;101288.16;5095608;28;20063;-58
2023/06/25 00:32:57;;;;;;;2.25;1.40;;;;;;;27.91;47.53;101290.69;5096689;28;20044;-58
2023/06/25 00:35:38;;;;;;;2.65;1.52;;;;;;;27.91;47.68;101285.25;5096531;28;20051;-58
2023/06/25 00:38:06;;;;;;;2.72;1.48;;;;;;;27.91;47.46;101288.81;5096747;28;20044;-59
2023/06/25 00:40:33;;;;;;;4.05;2.08;;;;;;;27.91;47.74;101280.66;5096647;28;20044;-58
2023/06/25 00:43:03;;;;;;;2.53;1.38;;;;;;;27.94;47.41;101280.28;5097061;28;20055;-58
2023/06/25 00:45:31;;;;;;;2.60;1.25;;;;;;;27.94;47.67;101277.56;5095675;28;20114;-58
2023/06/25 00:47:58;;;;;;;2.72;1.30;;;;;;;27.94;47.32;101269.41;5095328;28;20048;-58
2023/06/25 00:50:26;;;;;;;2.63;1.80;;;;;;;27.94;47.34;101269.41;5096379;28;20043;-58
2023/06/25 00:52:54;;;;;;;2.90;1.52;;;;;;;27.94;47.46;101265.84;5096421;28;20051;-58
2023/06/25 00:55:22;;;;;;;2.47;1.55;;;;;;;27.95;47.96;101276.53;5096300;28;20377;-58
2023/06/25 00:57:51;;;;;;;3.05;1.42;;;;;;;27.95;47.94;101271.09;5095311;28;20055;-58
2023/06/25 01:00:19;;;;;;;5.95;1.73;;;;;;;27.96;47.90;101280.97;5096163;28;20044;-58
2023/06/25 01:03:00;;;;;;;2.53;1.38;;;;;;;27.96;47.87;101275.53;5096371;28;20044;-58
2023/06/25 01:05:50;;;;;;;3.78;1.50;;;;;;;27.97;47.73;101274.50;5096061;28;20047;-59
2023/06/25 01:08:38;;;;;;;3.55;1.45;;;;;;;27.96;47.38;101267.38;5095905;28;20468;-59
2023/06/25 01:11:10;;;;;;;2.08;1.20;;;;;;;27.96;47.36;101267.38;5095653;28;20043;-58
2023/06/25 01:13:38;;;;;;;;;;;;;;;27.96;47.54;101277.41;5096534;28;20039;-59
2023/06/25 01:16:06;;;;;;;2.50;1.50;;;;;;;27.96;47.94;101277.41;5095894;28;19924;-58
2023/06/25 01:18:33;;;;;;;2.90;1.40;;;;;;;27.97;47.98;101279.09;5095838;28;20502;-59
2023/06/25 01:21:03;;;;;;;2.70;1.58;;;;;;;27.97;47.85;101274.50;5095785;28;20055;-58
2023/06/25 01:23:31;;;;;;;4.20;1.42;;;;;;;27.97;47.68;101265.50;5095671;28;20052;-58
2023/06/25 01:25:59;;;;;;;3.10;1.42;;;;;;;27.97;47.95;101266.34;5094741;28;20044;-58
2023/06/25 01:28:26;;;;;;;3.28;1.65;;;;;;;27.97;47.92;101265.50;5095909;28;20514;-59
2023/06/25 01:30:54;;;;;;;2.60;1.80;;;;;;;27.98;47.75;101264.47;5094197;28;20048;-58
2023/06/25 01:33:25;;;;;;;3.22;1.85;;;;;;;27.98;47.94;101268.03;5094340;28;20063;-58
2023/06/25 01:35:53;;;;;;;3.80;1.90;;;;;;;27.98;47.68;101269.91;5095294;28;20044;-58
2023/06/25 01:38:21;;;;;;;3.58;1.58;;;;;;;27.98;47.75;101265.31;5095555;28;20044;-58
2023/06/25 01:40:48;;;;;;;2.42;1.45;;;;;;;27.97;47.67;101252.72;5095336;28;20051;-58
2023/06/25 01:43:16;;;;;;;3.70;1.77;;;;;;;27.99;47.60;101266.16;5095073;28;20056;-58
2023/06/25 01:45:43;;;;;;;3.08;1.80;;;;;;;27.99;48.09;101260.72;5095078;28;20102;-58
2023/06/25 01:48:11;;;;;;;2.42;1.45;;;;;;;27.98;47.83;101257.13;5094063;28;20059;-58
2023/06/25 01:50:38;;;;;;;3.90;1.65;;;;;;;27.99;48.09;101252.53;5094067;28;20484;-58
2023/06/25 01:53:05;;;;;;;2.88;1.80;;;;;;;27.99;48.22;101250.66;5095429;28;20054;-58
2023/06/25 01:55:33;;;;;;;2.92;1.75;;;;;;;27.99;48.06;101253.38;5095257;28;20044;-58
2023/06/25 01:58:01;;;;;;;3.50;1.65;;;;;;;27.99;47.92;101256.09;5094226;28;20056;-58
2023/06/25 02:00:28;;;;;;;3.80;1.73;;;;;;;28.00;47.91;101251.53;5094186;28;20044;-58
2023/06/25 02:03:03;;;;;;;3.63;1.88;;;;;;;28.00;48.04;101257.81;5095112;28;20051;-58
2023/06/25 02:05:31;;;;;;;2.53;1.60;;;;;;;28.01;48.24;101247.78;5094951;28;20510;-58
2023/06/25 02:07:59;;;;;;;4.35;1.67;;;;;;;28.00;48.40;101252.38;5094973;28;20044;-58
2023/06/25 02:10:28;;;;;;;3.15;1.90;;;;;;;28.01;47.99;101254.06;5094018;28;20052;-58
2023/06/25 02:12:56;;;;;;;2.90;1.63;;;;;;;28.00;48.12;101236.06;5094740;28;20052;-58
2023/06/25 02:15:24;;;;;;;2.67;1.80;;;;;;;27.99;47.93;101234.34;5093584;28;20048;-58
2023/06/25 02:17:51;;;;;;;2.63;1.45;;;;;;;28.00;48.29;101230.59;5093591;28;20051;-58
2023/06/25 02:20:19;;;;;;;3.33;1.50;;;;;;;28.00;48.20;101230.59;5094222;28;20043;-58
2023/06/25 02:22:48;;;;;;;4.47;1.58;;;;;;;28.00;48.15;101230.59;5092984;28;20052;-58
2023/06/25 02:25:15;;;;;;;3.00;1.77;;;;;;;28.01;48.16;101228.72;5094520;28;20511;-58
2023/06/25 02:27:42;;;;;;;3.22;1.67;;;;;;;27.99;48.00;101223.44;5094840;28;20055;-58
2023/06/25 02:30:10;;;;;;;2.50;1.63;;;;;;;28.00;47.72;101230.59;5094275;28;20044;-58
2023/06/25 02:32:38;;;;;;;3.25;1.65;;;;;;;28.01;48.04;101226.00;5093399;28;20051;-58
2023/06/25 02:35:08;;;;;;;3.22;1.65;;;;;;;28.01;47.95;101234.19;5093179;28;20055;-58
2023/06/25 02:37:35;;;;;;;4.78;1.77;;;;;;;28.01;47.92;101236.91;5094292;28;20047;-58
2023/06/25 02:40:03;;;;;;;2.50;1.40;;;;;;;28.02;47.74;101238.59;5094492;28;20044;-58
2023/06/25 02:42:31;;;;;;;4.15;2.00;;;;;;;28.01;47.65;101229.56;5093426;28;20052;-58
2023/06/25 02:44:59;;;;;;;2.53;1.52;;;;;;;28.01;47.77;101231.44;5094302;28;20051;-58
2023/06/25 02:47:27;;;;;;;3.33;1.75;;;;;;;28.00;47.48;101230.59;5094218;28;20044;-58
2023/06/25 02:49:55;;;;;;;3.42;1.52;;;;;;;28.00;47.82;101219.72;5094102;28;20495;-59
2023/06/25 02:52:22;;;;;;;3.35;1.48;;;;;;;28.01;47.55;101218.69;5093036;28;20496;-58
2023/06/25 02:54:49;;;;;;;3.08;1.58;;;;;;;28.01;47.40;101226.84;5093014;28;20055;-59
2023/06/25 02:57:17;;;;;;;2.58;1.67;;;;;;;28.01;47.71;101229.56;5092607;28;20052;-58
2023/06/25 02:59:44;;;;;;;4.38;1.80;;;;;;;28.01;47.39;101223.28;5092600;28;20059;-62
2023/06/25 03:02:12;;;;;;;3.28;1.80;;;;;;;27.99;47.30;101223.44;5092973;28;20043;-59
2023/06/25 03:04:40;;;;;;;3.22;1.70;;;;;;;27.96;47.29;101226.56;5076398;28;20059;-59
2023/06/25 03:07:07;;;;;;;3.35;1.48;;;;;;;27.92;46.65;101227.94;5093050;28;20044;-59
2023/06/25 03:09:35;;;;;;;4.97;1.60;;;;;;;27.88;46.54;101232.03;5093877;28;20405;-59
2023/06/25 03:12:03;;;;;;;3.13;1.90;;;;;;;27.86;46.80;101234.09;5093043;28;20048;-62
2023/06/25 03:14:30;;;;;;;2.35;1.42;;;;;;;27.83;46.47;101235.31;5092809;28;20044;-63
2023/06/25 03:17:03;;;;;;;2.58;1.42;;;;;;;27.81;46.51;101231.91;5092736;28;20044;-62
2023/06/25 03:19:31;;;;;;;2.55;1.60;;;;;;;27.79;46.81;101239.41;5092856;28;20514;-61
2023/06/25 03:21:59;;;;;;;2.55;1.40;;;;;;;27.78;46.45;101237.69;5092441;28;20052;-62
2023/06/25 03:24:28;;;;;;;2.72;1.38;;;;;;;27.76;46.83;101242.47;5092420;28;20056;-62
2023/06/25 03:26:56;;;;;;;2.60;1.40;;;;;;;27.76;46.66;101244.34;5092591;28;20048;-62
2023/06/25 03:29:24;;;;;;;2.20;1.30;;;;;;;27.76;46.41;101238.91;5093626;28;20043;-63
2023/06/25 03:31:51;;;;;;;3.45;2.03;;;;;;;27.74;46.62;101252.66;5093897;28;20052;-59
2023/06/25 03:34:22;;;;;;;2.75;1.30;;;;;;;27.73;46.73;101251.00;5098981;28;20514;-59
2023/06/25 03:36:50;;;;;;;2.55;1.40;;;;;;;27.73;46.42;101244.66;5100179;28;20054;-62
2023/06/25 03:39:18;;;;;;;2.25;1.27;;;;;;;27.72;46.35;101241.09;5099219;28;20051;-61
2023/06/25 03:41:45;;;;;;;2.40;1.30;;;;;;;27.71;46.15;101242.13;5099172;28;20452;-59
2023/06/25 03:44:13;;;;;;;3.42;1.40;;;;;;;27.71;46.22;101235.81;5099414;28;20051;-59
2023/06/25 03:46:40;;;;;;;2.53;1.48;;;;;;;27.69;46.23;101240.59;5098903;28;20052;-59
2023/06/25 03:49:08;;;;;;;2.75;1.50;;;;;;;27.67;46.55;101245.38;5099068;28;20055;-59
2023/06/25 03:51:36;;;;;;;2.28;1.30;;;;;;;27.66;46.56;101243.69;5099355;28;20487;-59
2023/06/25 03:54:05;;;;;;;3.22;1.60;;;;;;;27.65;46.41;101245.56;5099135;28;20044;-59
2023/06/25 03:56:34;;;;;;;3.42;1.73;;;;;;;27.64;46.45;101251.19;5099081;28;20044;-59
2023/06/25 03:59:02;;;;;;;2.28;1.23;;;;;;;27.63;46.13;101250.34;5100063;28;20051;-59
2023/06/25 04:01:29;;;;;;;2.60;1.08;;;;;;;27.62;46.52;101248.63;5098802;28;20059;-58
2023/06/25 04:03:57;;;;;;;3.50;1.65;;;;;;;27.62;46.65;101259.50;5099093;28;20052;-59
2023/06/25 04:06:24;;;;;;;2.92;1.40;;;;;;;27.60;46.61;101254.25;5100277;28;20051;-59
2023/06/25 04:08:52;;;;;;;3.58;1.48;;;;;;;27.59;46.46;101249.00;5098973;28;20052;-59
2023/06/25 04:11:19;;;;;;;2.58;1.25;;;;;;;27.59;46.51;101249.00;5099436;28;20044;-62
2023/06/25 04:13:47;;;;;;;3.90;1.95;;;;;;;27.57;46.76;101246.44;5098836;28;20073;-63
2023/06/25 04:16:14;;;;;;;2.42;1.50;;;;;;;27.57;46.82;101257.31;5098757;28;20369;-62
2023/06/25 04:18:42;;;;;;;3.40;1.38;;;;;;;27.57;46.54;101254.59;5098921;28;20051;-63
2023/06/25 04:21:09;;;;;;;3.47;1.40;;;;;;;27.55;46.50;101255.81;5100121;28;20048;-59
2023/06/25 04:23:37;;;;;;;3.10;1.40;;;;;;;27.54;46.54;101254.09;5098853;28;20484;-58
2023/06/25 04:26:05;;;;;;;2.40;1.40;;;;;;;27.51;46.50;101259.91;5098822;28;20052;-59
2023/06/25 04:28:32;;;;;;;3.05;1.40;;;;;;;27.49;46.39;101254.63;5081545;28;20546;-58
2023/06/25 04:31:02;;;;;;;3.53;1.52;;;;;;;27.49;46.31;101253.78;5098326;28;20074;-59
2023/06/25 04:33:29;;;;;;;3.90;1.25;;;;;;;27.48;46.61;101250.22;5098111;28;20070;-59
2023/06/25 04:35:57;;;;;;;2.40;1.40;;;;;;;27.47;46.71;101245.81;5098735;28;20495;-59
2023/06/25 04:38:25;;;;;;;4.40;1.27;;;;;;;27.46;46.35;101246.81;5098692;28;20066;-59
2023/06/25 04:40:52;;;;;;;4.20;1.70;;;;;;;27.46;46.67;101246.81;5099948;28;20044;-59
2023/06/25 04:43:20;;;;;;;3.65;1.60;;;;;;;27.46;46.55;101254.97;5099336;28;20048;-63
2023/06/25 04:45:47;;;;;;;2.65;1.42;;;;;;;27.47;46.67;101247.69;5094631;28;20056;-63
2023/06/25 04:48:18;;;;;;;3.55;1.48;;;;;;;27.48;46.21;101252.94;5095199;28;20372;-62
2023/06/25 04:50:45;;;;;;;3.13;1.13;;;;;;;27.48;46.27;101250.22;5095620;28;20502;-61
2023/06/25 04:53:13;;;;;;;4.57;1.38;;;;;;;27.49;46.34;101249.19;5096558;28;20051;-62
2023/06/25 04:55:40;;;;;;;3.30;1.30;;;;;;;27.48;45.92;101239.34;5096404;28;20040;-63
2023/06/25 04:58:07;;;;;;;4.20;1.58;;;;;;;27.49;46.20;101242.91;5096390;28;20040;-63
2023/06/25 05:00:35;;;;;;;2.67;1.13;;;;;;;27.49;46.07;101238.31;5096286;28;20110;-63
2023/06/25 05:03:02;;;;;;;2.25;1.48;;;;;;;27.50;46.09;101240.00;5096289;28;20044;-62
2023/06/25 05:05:30;;;;;;;3.13;1.33;;;;;;;27.50;46.42;101240.00;5096212;28;20044;-63
2023/06/25 05:07:58;;;;;;;3.38;1.40;;;;;;;27.52;46.10;101235.25;5096145;28;20043;-63
2023/06/25 05:10:25;;;;;;;5.43;1.42;;;;;;;27.53;46.35;101236.94;5095851;28;20408;-63
2023/06/25 05:12:52;;;;;;;3.47;1.50;;;;;;;27.54;46.45;101235.06;5096148;28;20048;-59
2023/06/25 05:15:20;;;;;;;3.50;1.40;;;;;;;27.56;46.11;101233.03;5096072;28;20047;-59
2023/06/25 05:17:47;;;;;;;2.70;1.58;;;;;;;27.56;46.31;101239.31;5095916;28;20361;-59
2023/06/25 05:20:14;;;;;;;2.45;1.40;;;;;;;27.54;46.15;101241.34;5095937;28;20380;-59
2023/06/25 05:22:42;;;;;;;2.58;1.65;;;;;;;27.56;46.27;101249.34;5095570;28;20048;-62
2023/06/25 05:25:09;;;;;;;2.45;1.40;;;;;;;27.56;46.40;101252.91;5095669;28;20048;-63
2023/06/25 05:27:36;;;;;;;3.50;1.60;;;;;;;27.56;46.56;101250.19;5095407;28;20044;-63
2023/06/25 05:30:04;;;;;;;2.95;1.63;;;;;;;27.57;46.50;101249.16;5095373;28;20056;-63
2023/06/25 05:32:32;;;;;;;2.20;1.20;;;;;;;27.57;46.37;101253.75;5094313;28;20040;-59
2023/06/25 05:34:59;;;;;;;2.95;1.60;;;;;;;27.58;46.86;101253.56;5095557;28;20044;-59
2023/06/25 05:37:26;;;;;;;2.92;1.48;;;;;;;27.58;46.78;101255.44;5095430;28;20054;-59
2023/06/25 05:39:54;;;;;;;3.28;1.52;;;;;;;27.58;46.49;101255.44;5095485;28;20114;-62
2023/06/25 05:42:21;;;;;;;2.40;1.40;;;;;;;27.57;46.87;101253.75;5095627;28;20379;-62
2023/06/25 05:44:48;;;;;;;3.47;1.67;;;;;;;27.57;46.88;101256.47;5095475;28;20044;-63
2023/06/25 05:47:16;;;;;;;3.75;1.65;;;;;;;27.58;47.01;101258.16;5095482;28;20059;-63
2023/06/25 05:49:43;;;;;;;3.35;2.13;;;;;;;27.58;46.77;101250.00;5095269;28;20047;-63
2023/06/25 05:52:10;;;;;;;4.93;1.92;;;;;;;27.57;47.25;101257.31;5095369;28;20044;-62
2023/06/25 05:54:38;;;;;;;3.08;1.88;;;;;;;27.58;47.43;101258.16;5094977;28;20060;-63
2023/06/25 05:57:05;;;;;;;2.90;1.65;;;;;;;27.58;47.48;101259.00;5095279;28;20400;-63
2023/06/25 05:59:33;;;;;;;2.60;1.48;;;;;;;27.59;47.31;101268.03;5095077;28;20040;-63
2023/06/25 06:02:01;;;;;;;2.45;1.27;;;;;;;27.60;47.51;101267.84;5095175;28;20044;-59
2023/06/25 06:04:28;;;;;;;3.13;1.38;;;;;;;27.61;47.59;101265.97;5095125;28;20496;-59
2023/06/25 06:06:56;;;;;;;3.30;1.65;;;;;;;27.61;47.55;101268.69;5095059;28;20048;-59
2023/06/25 06:09:23;;;;;;;2.85;1.60;;;;;;;27.61;47.23;101269.53;5094835;28;20047;-59
2023/06/25 06:11:50;;;;;;;2.17;1.15;;;;;;;27.61;46.97;101276.84;5094968;28;20044;-62
2023/06/25 06:14:18;;;;;;;3.55;1.30;;;;;;;27.63;46.99;101282.09;5094805;28;20040;-63
2023/06/25 06:16:45;;;;;;;2.53;1.50;;;;;;;27.61;47.05;101280.41;5094838;28;20064;-63
2023/06/25 06:19:12;;;;;;;3.00;1.63;;;;;;;27.60;47.08;101276.00;5094685;28;20047;-62
2023/06/25 06:21:40;;;;;;;2.88;1.58;;;;;;;27.61;47.22;101274.97;5094702;28;20044;-59
2023/06/25 06:24:07;;;;;;;3.05;1.88;;;;;;;27.63;47.34;101273.94;5094613;28;20055;-59
2023/06/25 06:26:35;;;;;;;4.53;1.98;;;;;;;27.63;47.26;101272.09;5094927;28;20486;-59
2023/06/25 06:29:03;;;;;;;2.67;1.52;;;;;;;27.65;47.07;101278.19;5094628;28;20040;-59
2023/06/25 06:31:34;;;;;;;2.88;1.55;;;;;;;27.65;46.99;101285.50;5094755;28;20052;-62
2023/06/25 06:34:01;;;;;;;2.85;1.42;;;;;;;27.66;47.04;101287.19;5094536;28;20495;-63
2023/06/25 06:36:29;;;;;;;2.25;1.20;;;;;;;27.64;46.95;101279.22;5094380;28;20051;-63
2023/06/25 06:38:56;;;;;;;2.50;1.48;;;;;;;27.65;47.16;101278.19;5093553;28;20052;-63
2023/06/25 06:41:23;;;;;;;2.63;1.42;;;;;;;27.65;47.03;101271.91;5094487;28;20055;-59
2023/06/25 06:43:51;;;;;;;3.63;1.83;;;;;;;27.66;47.19;101276.31;5094263;28;20051;-59
2023/06/25 06:46:18;;;;;;;3.70;1.60;;;;;;;27.66;47.11;101277.16;5094412;28;20052;-59
2023/06/25 06:48:45;;;;;;;2.50;1.17;;;;;;;27.67;47.05;101280.72;5093137;28;20495;-59
2023/06/25 06:51:13;;;;;;;2.33;1.30;;;;;;;27.67;47.13;101278.88;5094270;28;20059;-61
2023/06/25 06:53:40;;;;;;;4.22;1.52;;;;;;;27.67;47.19;101275.28;5093974;28;20055;-61
2023/06/25 06:56:07;;;;;;;2.75;1.77;;;;;;;27.66;47.23;101276.31;5093370;28;20055;-61
2023/06/25 06:58:35;;;;;;;5.53;1.98;;;;;;;27.63;47.59;101282.09;5093553;28;20404;-61
2023/06/25 07:01:02;;;;;;;4.20;1.67;;;;;;;27.57;47.15;101283.66;5093664;28;20515;-61
2023/06/25 07:03:29;;;;;;;3.25;1.67;;;;;;;27.51;47.24;101278.94;5093608;28;20048;-60
2023/06/25 07:05:57;;;;;;;2.60;1.65;;;;;;;27.45;46.92;101285.91;5093849;28;20043;-60
2023/06/25 07:08:24;;;;;;;4.13;1.85;;;;;;;27.39;47.16;101283.03;5093233;28;20044;-60
2023/06/25 07:10:51;;;;;;;3.10;1.83;;;;;;;27.35;47.16;101280.69;5093888;28;20044;-62
2023/06/25 07:13:19;;;;;;;2.50;1.60;;;;;;;27.34;47.23;101272.69;5093917;28;20415;-63
2023/06/25 07:15:46;;;;;;;3.15;1.90;;;;;;;27.31;47.34;101275.78;5093714;28;20396;-63
2023/06/25 07:18:13;;;;;;;4.38;2.00;;;;;;;27.29;47.56;101272.38;5093689;28;20392;-63
2023/06/25 07:20:41;;;;;;;5.00;2.45;;;;;;;27.27;47.75;101278.00;5093525;28;20051;-63
2023/06/25 07:23:11;;;;;;;3.70;2.22;;;;;;;27.24;47.79;101272.03;5093810;28;20052;-60
2023/06/25 07:25:38;;;;;;;3.00;1.92;;;;;;;27.23;47.76;101267.63;5087622;28;20047;-58
2023/06/25 07:28:08;;;;;;;2.95;1.77;;;;;;;27.22;47.88;101276.78;5092662;28;20426;-57
2023/06/25 07:30:37;;;;;;;2.80;1.60;;;;;;;27.21;47.81;101273.22;5093555;28;20070;-58
2023/06/25 07:33:05;;;;;;;2.70;1.55;;;;;;;27.21;47.84;101270.50;5093707;28;20083;-54
2023/06/25 07:35:33;;;;;;;2.90;1.60;;;;;;;27.22;48.16;101264.03;5093499;28;20071;-55
2023/06/25 07:38:00;;;;;;;2.83;1.77;;;;;;;27.26;48.13;101267.25;5093479;28;20051;-54
2023/06/25 07:40:27;;;;;;;4.10;1.67;;;;;;;27.26;48.01;101262.69;5093169;28;20039;-57
2023/06/25 07:42:55;;;;;;;2.85;1.73;;;;;;;27.26;47.98;101265.41;5093704;28;20044;-57
2023/06/25 07:45:22;;;;;;;2.67;1.83;;;;;;;27.27;47.54;101261.69;5093481;28;20044;-56
2023/06/25 07:47:49;;;;;;;2.75;1.73;;;;;;;27.33;47.80;101262.84;5093613;28;20052;-57
2023/06/25 07:50:17;;;;;;;3.13;1.88;;;;;;;27.37;47.47;101253.31;5093327;28;20040;-57
2023/06/25 07:52:44;;;;;;;2.90;2.00;;;;;;;27.42;47.39;101259.06;5093315;28;20044;-58
2023/06/25 07:55:11;;;;;;;2.30;1.50;;;;;;;27.46;47.18;101249.53;5093357;28;20540;-58
2023/06/25 07:57:39;;;;;;;3.13;1.73;;;;;;;27.48;47.21;101250.22;5092660;28;20059;-58
2023/06/25 08:00:07;;;;;;;4.53;1.90;;;;;;;27.50;47.28;101256.31;5093503;28;20507;-58
2023/06/25 08:02:40;;;;;;;2.90;1.75;;;;;;;27.52;47.01;101250.72;5100270;28;20048;-57
2023/06/25 08:05:08;;;;;;;4.50;1.95;;;;;;;27.53;47.00;101253.25;5093024;28;20048;-57
2023/06/25 08:07:35;;;;;;;3.38;1.55;;;;;;;27.57;46.99;101254.59;5093246;28;20044;-56
2023/06/25 08:10:03;;;;;;;2.85;2.05;;;;;;;27.63;45.65;101254.91;5093366;28;20044;-54
2023/06/25 08:12:30;;;;;;;2.67;1.63;;;;;;;27.67;45.76;101254.41;5093576;28;20215;-58
2023/06/25 08:14:58;;;;;;;3.42;1.70;;;;;;;27.70;45.77;101256.75;5093400;28;20044;-58
2023/06/25 08:17:26;;;;;;;3.53;2.00;;;;;;;27.72;46.17;101254.72;5093191;28;20055;-58
2023/06/25 08:19:53;;;;;;;4.28;1.55;;;;;;;27.73;45.51;101256.44;5094662;28;20063;-58
2023/06/25 08:22:20;;;;;;;5.85;2.15;;;;;;;27.74;45.55;101252.66;5096869;28;20407;-54
2023/06/25 08:24:47;;;;;;;3.00;2.13;;;;;;;27.75;45.39;101259.84;5096913;28;20383;-55
2023/06/25 08:27:15;;;;;;;3.88;2.10;;;;;;;27.83;44.80;101256.19;5096828;28;20055;-54
2023/06/25 08:29:42;;;;;;;3.35;2.30;;;;;;;27.85;44.76;101256.88;5077583;28;20040;-55
2023/06/25 08:32:10;;;;;;;3.30;2.35;;;;;;;27.92;44.26;101265.19;5076499;28;20388;-58
2023/06/25 08:34:38;;;;;;;2.67;2.00;;;;;;;27.92;44.23;101248.88;5076431;28;20044;-58
2023/06/25 08:37:05;;;;;;;3.10;1.83;;;;;;;27.92;44.56;101257.03;5076472;28;20044;-58
2023/06/25 08:39:32;;;;;;;3.65;1.95;;;;;;;27.91;44.93;101248.00;5075989;28;20047;-58
2023/06/25 08:42:00;;;;;;;3.33;2.08;;;;;;;27.92;45.00;101249.72;5076049;28;20064;-58
2023/06/25 08:44:28;;;;;;;4.72;2.60;;;;;;;27.94;44.04;101247.63;5075435;28;20048;-59
2023/06/25 08:46:58;;;;;;;4.10;2.47;;;;;;;28.00;42.96;101237.94;5075832;28;20056;-59
2023/06/25 08:49:29;;;;;;;3.40;2.22;;;;;;;28.01;43.42;101239.63;5076026;28;20044;-58
2023/06/25 08:51:59;;;;;;;3.15;2.30;;;;;;;28.03;43.27;101240.28;5076249;28;20049;-58
2023/06/25 08:54:27;;;;;;;4.55;2.65;;;;;;;28.11;42.40;101242.94;5076387;28;20056;-58
2023/06/25 08:56:54;;;;;;;3.55;2.42;;;;;;;28.17;42.26;101238.66;5076221;28;20067;-58
2023/06/25 08:59:21;;;;;;;3.58;2.40;;;;;;;28.25;41.23;101238.63;5075924;28;20055;-58
2023/06/25 09:01:49;;;;;;;5.30;2.90;;;;;;;28.31;41.17;101244.16;5076583;28;20481;-54
2023/06/25 09:04:16;;;;;;;4.40;2.50;;;;;;;28.33;40.74;101244.00;5076033;28;20499;-55
2023/06/25 09:06:44;;;;;;;4.28;2.58;;;;;;;28.33;40.37;101241.28;5074794;28;20048;-55
2023/06/25 09:09:30;;;;;;;3.30;2.72;;;;;;;28.29;40.48;101248.09;5075999;28;20040;-54
2023/06/25 09:11:57;;;;;;;3.53;2.33;;;;;;;28.28;41.19;101240.97;5075753;28;20059;-58
2023/06/25 09:14:25;;;;;;;3.65;2.42;;;;;;;28.32;40.89;101240.44;5075856;28;20044;-57
2023/06/25 09:16:56;;;;;;;3.55;2.25;;;;;;;28.28;41.98;101240.97;5086255;28;20071;-58
2023/06/25 09:19:24;;;;;;;3.15;2.25;;;;;;;28.25;42.17;101242.19;5094766;28;20051;-59
2023/06/25 09:21:51;;;;;;;5.35;2.95;;;;;;;28.33;41.35;101241.28;5095779;28;20483;-58
2023/06/25 09:24:20;;;;;;;3.58;2.53;;;;;;;28.32;41.46;101234.13;5094594;28;20044;-59
2023/06/25 09:26:49;;;;;;;4.20;2.75;;;;;;;28.28;41.89;101222.75;5092457;28;20040;-60
2023/06/25 09:29:18;;;;;;;3.25;2.25;;;;;;;28.29;41.54;101224.44;5093925;28;20036;-60
2023/06/25 09:31:47;;;;;;;4.55;2.25;;;;;;;28.28;42.42;101216.47;5092422;28;20044;-60
2023/06/25 09:34:18;;;;;;;4.32;2.65;;;;;;;28.30;42.52;101220.69;5094796;28;20082;-60
2023/06/25 09:36:46;;;;;;;3.83;2.25;;;;;;;28.28;42.36;101217.31;5094822;28;20047;-59
2023/06/25 09:39:13;;;;;;;4.30;2.65;;;;;;;28.25;43.02;101214.94;5091451;28;20045;-61
2023/06/25 09:41:41;;;;;;;4.18;3.15;;;;;;;28.28;42.88;101213.75;5080089;28;20062;-56
2023/06/25 09:44:10;;;;;;;5.10;2.90;;;;;;;28.35;42.50;101218.25;5094981;28;20376;-56
2023/06/25 09:46:40;;;;;;;4.90;3.25;;;;;;;28.44;41.04;101210.94;5094961;28;20071;-57
2023/06/25 09:49:07;;;;;;;3.30;2.53;;;;;;;28.41;41.74;101213.16;5081746;28;20416;-57
2023/06/25 09:51:58;;;;;;;3.47;2.75;;;;;;;28.36;42.29;101213.72;5074769;28;20483;-58
2023/06/25 09:54:27;;;;;;;4.43;2.70;;;;;;;28.33;42.39;101200.44;5074670;28;20052;-59
2023/06/25 09:56:58;;;;;;;3.85;2.85;;;;;;;28.40;42.16;101215.03;5075090;28;20484;-57
2023/06/25 09:59:26;;;;;;;4.72;2.88;;;;;;;28.41;41.82;101210.44;5074744;28;20049;-58
2023/06/25 10:01:53;;;;;;;4.20;2.60;;;;;;;28.44;41.08;101208.22;5094282;28;20043;-56
2023/06/25 10:04:21;;;;;;;3.53;2.90;;;;;;;28.49;40.43;101202.19;5094457;28;20051;-56
2023/06/25 10:06:50;;;;;;;4.80;2.83;;;;;;;28.61;39.69;101199.88;5094529;28;20048;-56
2023/06/25 10:09:17;;;;;;;4.50;3.20;;;;;;;28.53;40.41;101204.38;5094472;28;20395;-56
2023/06/25 10:11:51;;;;;;;4.45;2.85;;;;;;;28.56;39.97;101204.00;5094211;28;20044;-58
2023/06/25 10:14:19;;;;;;;6.47;3.45;;;;;;;28.65;40.14;101207.50;5094765;28;20044;-59
2023/06/25 10:16:56;;;;;;;4.18;3.03;;;;;;;28.64;39.57;101203.06;5094307;28;20114;-59
2023/06/25 10:19:26;;;;;;;4.05;3.10;;;;;;;28.57;39.87;101197.53;5082955;28;20054;-59
2023/06/25 10:22:04;;;;;;;5.63;3.78;;;;;;;28.63;39.20;101195.94;5093055;28;20052;-59
2023/06/25 10:24:42;;;;;;;4.05;2.85;;;;;;;28.62;40.04;101201.56;5094621;28;20051;-59
2023/06/25 10:27:29;;;;;;;3.58;2.95;;;;;;;28.59;39.96;101195.44;5093299;28;20044;-59
2023/06/25 10:29:57;;;;;;;4.25;3.10;;;;;;;28.52;40.66;101191.78;5092240;28;20044;-59
2023/06/25 10:32:27;;;;;;;3.75;2.92;;;;;;;28.49;40.99;101194.88;5094446;28;20048;-56
2023/06/25 10:35:02;;;;;;;7.35;3.22;;;;;;;28.56;40.04;101193.13;5094011;28;20055;-56
2023/06/25 10:37:32;;;;;;;4.85;3.13;;;;;;;28.51;39.76;101184.63;5093812;28;20055;-58
2023/06/25 10:40:04;;;;;;;4.78;3.15;;;;;;;28.50;40.02;101182.94;5093671;28;20103;-56
2023/06/25 10:42:33;;;;;;;6.57;2.92;;;;;;;28.51;40.57;101179.19;5093143;28;20086;-59
2023/06/25 10:45:01;;;;;;;4.57;3.33;;;;;;;28.64;39.37;101177.69;5093379;28;20044;-59
2023/06/25 10:47:28;;;;;;;4.63;3.03;;;;;;;28.71;38.74;101178.66;5092960;28;20126;-60
2023/06/25 10:49:56;;;;;;;4.18;3.33;;;;;;;28.65;39.17;101179.41;5093026;28;20047;-59
2023/06/25 10:52:23;;;;;;;4.40;3.50;;;;;;;28.65;38.15;101171.25;5093119;28;20051;-56
2023/06/25 10:54:55;;;;;;;4.28;3.00;;;;;;;28.61;37.19;101178.94;5093703;28;20047;-56
2023/06/25 10:57:22;;;;;;;4.80;3.15;;;;;;;28.53;37.97;101171.69;5090333;28;20056;-57
2023/06/25 10:59:51;;;;;;;4.97;3.47;;;;;;;28.59;38.25;101181.81;5093878;28;20047;-56
2023/06/25 11:02:21;;;;;;;4.72;3.45;;;;;;;28.59;38.36;101164.63;5093683;28;20044;-60
2023/06/25 11:04:51;;;;;;;4.97;3.63;;;;;;;28.55;39.13;101176.94;5093702;28;20044;-59
2023/06/25 11:07:19;;;;;;;5.15;2.70;;;;;;;28.50;39.52;101163.88;5093988;28;20070;-60
2023/06/25 11:10:07;;;;;;;4.32;3.25;;;;;;;28.48;39.86;101165.09;5093411;28;20050;-59
2023/06/25 11:12:34;;;;;;;4.40;3.03;;;;;;;28.45;39.65;101170.91;5089016;28;20044;-59
2023/06/25 11:15:01;;;;;;;3.70;2.95;;;;;;;28.43;39.22;101173.81;5092600;28;20040;-60
2023/06/25 11:17:29;;;;;;;4.32;2.92;;;;;;;28.47;38.71;101164.25;5093549;28;20342;-59
2023/06/25 11:19:57;;;;;;;4.50;3.10;;;;;;;28.53;36.99;101168.13;5093244;28;20044;-60
2023/06/25 11:22:28;;;;;;;4.28;3.30;;;;;;;28.51;36.44;101162.84;5093900;28;20036;-58
2023/06/25 11:24:58;;;;;;;4.45;3.50;;;;;;;28.60;34.85;101166.31;5093358;28;20044;-59
2023/06/25 11:27:28;;;;;;;6.07;3.63;;;;;;;28.52;34.74;101164.56;5092583;28;20518;-60
2023/06/25 11:29:56;;;;;;;4.03;3.20;;;;;;;28.50;36.09;101160.31;5092127;28;20051;-59